KCXE

Chase City Municipal Airport

Chase City, Virginia, USA
METAR KCXE 201715Z AUTO 25005KT 10SM BKN008 BKN038 OVC110 16/16 A2984 RMK AO1 T01600160
Observed Flight Rules
Oct-20 @ 17:15 UTC (42 minutes ago) Instrument Flight Rules
Wind Visibility Clouds
250° at 5 knots 10 miles
  • Broken at 800' AGL
  • Broken at 3,800' AGL
  • Overcast at 11,000' AGL
Temperatures Readings
Current 16°C / 61°F
Dewpoint 16°C / 61°F
Humidity 100%
Altimeter 29.84" Hg
Pressure 1010 hPa
Elevation 153
METAR KCXE 201715Z AUTO 25005KT 10SM BKN008 BKN038 OVC110 16/16 A2984 RMK AO1 T01600160
Observed Flight Rules
Oct-20 @ 17:15 UTC
(42 minutes ago)
IFR
Wind Visibility
250° at 5 knots 10 miles
Clouds
  • Broken at 800' AGL
  • Broken at 3,800' AGL
  • Overcast at 11,000' AGL
Temperature Dewpoint
16°C / 61°F 16°C / 61°F
Humidity Altimeter Pressure
100% 29.84" Hg 1010 hPa